ミールヌイ の空港の天気 - METARとTAF

Mirny ( UERR / MJZ ) - ロシア ミールヌイ
飛行場実況気象(Metar)
観測時間08/17 20:00 YAKT (08/17 11:00 UTC)
風向・風速東北東 6m/s
視程3000m
天気現象弱いしゅう雨
全天の8割程度の雲 雲底高度 210m
全天を覆う雲 雲底高度 490m
気温12℃
湿度100%
気圧1013hPa
METARUERR 171100Z 07006MPS 3000 -SHRA BKN007 OVC016CB 12/12 Q1013 R07/290350 NOSIG RMK QFE730
過去の天気等 Google飛行場航空写真 Wunderground天気予報

過去48時間のMETAR

飛行場予報(TAF)
発表時間: 8/17 20:00 YAKT (8/17 11:00 UTC)
予報対象時間: 17日21時 YAKT ~ 18日21時 YAKT
風向・風速北東 4m/s 瞬間風速 9m/s
視程3000m
天気現象弱いしゅう雨
全天の8割程度の雲 雲底高度 150m
全天を覆う積乱雲 雲底高度 610m
17日21時 YAKT ~ 18日3時 YAKT に一時的に
視程1000m
天気現象弱いしゅう雨 もや
全天の8割程度の雲 雲底高度 90m
全天を覆う積乱雲 雲底高度 460m
TAF UERR 171100Z 1712/1812 04004G09MPS 3000 -SHRA BKN005 OVC020CB
TEMPO 1712/1718 1000 -SHRA BR BKN003 OVC015CB